Time;durP1;ratioP1;P1;durP2;ratioP2;P2;SDS_P1;SDS_P2;PMS_P1;PMS_P2;Temp;Humidity;BMP_temperature;BMP_pressure;BME280_temperature;BME280_humidity;BME280_pressure;Samples;Min_cycle;Max_cycle;Signal;HPM_P1;HPM_P2
2023/06/10 00:01:38;;;;;;;12.50;9.30;;;18.50;15.10;;;;;;5035585;28;20462;-67
2023/06/10 00:04:05;;;;;;;11.10;9.50;;;18.50;15.10;;;;;;5037579;28;20981;-67
2023/06/10 00:06:35;;;;;;;10.77;9.67;;;18.50;15.60;;;;;;5034331;28;20486;-67
2023/06/10 00:09:05;;;;;;;13.77;10.03;;;18.50;15.80;;;;;;5036616;28;20469;-66
2023/06/10 00:11:32;;;;;;;11.33;9.43;;;18.40;16.10;;;;;;5033719;28;20501;-66
2023/06/10 00:13:59;;;;;;;11.93;9.20;;;18.40;15.90;;;;;;5038790;28;20541;-66
2023/06/10 00:16:25;;;;;;;13.50;11.37;;;18.40;16.10;;;;;;5035847;28;20838;-66
2023/06/10 00:18:52;;;;;;;10.97;9.17;;;18.40;15.80;;;;;;5035909;28;20548;-67
2023/06/10 00:21:20;;;;;;;12.00;9.70;;;18.40;16.20;;;;;;5034311;28;20462;-67
2023/06/10 00:23:46;;;;;;;10.43;8.93;;;18.30;16.20;;;;;;5035275;28;20470;-67
2023/06/10 00:26:15;;;;;;;12.20;9.70;;;18.30;16.30;;;;;;5037966;28;20488;-68
2023/06/10 00:28:42;;;;;;;13.73;9.03;;;18.30;16.50;;;;;;5038786;28;20986;-67
2023/06/10 00:31:08;;;;;;;14.17;9.50;;;18.30;16.50;;;;;;5039224;28;20536;-66
2023/06/10 00:33:35;;;;;;;10.60;9.00;;;18.20;16.50;;;;;;5038023;28;20475;-67
2023/06/10 00:36:02;;;;;;;10.70;9.30;;;18.30;16.60;;;;;;5036021;28;20894;-67
2023/06/10 00:38:28;;;;;;;10.40;8.80;;;18.20;16.70;;;;;;5038904;28;20470;-67
2023/06/10 00:40:55;;;;;;;13.80;10.00;;;18.20;16.80;;;;;;5039602;28;20474;-67
2023/06/10 00:43:23;;;;;;;11.27;9.40;;;18.20;16.80;;;;;;5040123;28;20458;-66
2023/06/10 00:45:51;;;;;;;10.40;9.30;;;18.10;16.90;;;;;;5042607;28;20454;-65
2023/06/10 00:48:18;;;;;;;11.30;8.80;;;18.10;16.70;;;;;;5043640;28;20490;-67
2023/06/10 00:50:46;;;;;;;9.73;8.67;;;18.10;16.80;;;;;;5040432;28;20470;-67
2023/06/10 00:53:13;;;;;;;11.70;9.43;;;18.10;16.80;;;;;;5041746;28;20474;-65
2023/06/10 00:55:42;;;;;;;11.80;9.60;;;18.10;17.10;;;;;;5041910;28;20455;-67
2023/06/10 00:58:09;;;;;;;10.90;8.87;;;18.10;17.10;;;;;;5037680;28;20481;-67
2023/06/10 01:00:37;;;;;;;11.60;8.90;;;18.10;17.10;;;;;;5038229;28;20459;-67
2023/06/10 01:03:07;;;;;;;10.67;9.40;;;18.10;17.00;;;;;;5037721;28;20470;-64
2023/06/10 01:05:34;;;;;;;11.40;9.23;;;18.00;17.20;;;;;;5041917;28;20462;-67
2023/06/10 01:08:15;;;;;;;12.77;10.07;;;18.00;17.10;;;;;;5040061;28;20479;-69
2023/06/10 01:10:47;;;;;;;11.83;10.03;;;18.00;17.30;;;;;;5037463;28;20544;-65
2023/06/10 01:13:16;;;;;;;11.67;10.40;;;17.90;17.40;;;;;;5037582;28;20886;-65
2023/06/10 01:15:44;;;;;;;13.40;9.70;;;17.90;17.40;;;;;;5041080;28;20483;-65
2023/06/10 01:18:14;;;;;;;12.23;9.50;;;17.90;17.50;;;;;;5037815;28;20490;-65
2023/06/10 01:20:42;;;;;;;11.57;8.60;;;17.80;17.40;;;;;;5038585;28;20461;-65
2023/06/10 01:23:11;;;;;;;11.70;9.47;;;17.80;17.60;;;;;;5038244;28;20503;-65
2023/06/10 01:25:40;;;;;;;10.93;9.20;;;17.80;17.80;;;;;;5038591;28;20473;-65
2023/06/10 01:28:14;;;;;;;12.83;9.77;;;17.80;17.90;;;;;;5037524;28;20479;-66
2023/06/10 01:30:48;;;;;;;12.23;10.40;;;17.70;17.80;;;;;;5039031;28;20488;-65
2023/06/10 01:33:18;;;;;;;12.27;9.53;;;17.70;18.00;;;;;;5038190;28;20491;-65
2023/06/10 01:35:47;;;;;;;11.20;8.90;;;17.70;18.00;;;;;;5035329;28;20473;-66
2023/06/10 01:38:16;;;;;;;11.43;9.53;;;17.60;18.10;;;;;;5037772;28;20483;-66
2023/06/10 01:40:44;;;;;;;10.60;8.90;;;17.60;18.00;;;;;;5038730;28;20451;-65
2023/06/10 01:43:10;;;;;;;12.10;10.17;;;17.60;17.90;;;;;;5037413;28;20557;-65
2023/06/10 01:45:37;;;;;;;12.57;10.20;;;17.60;17.90;;;;;;5039584;28;20453;-65
2023/06/10 01:48:04;;;;;;;11.80;9.90;;;17.50;18.30;;;;;;5038214;28;20481;-65
2023/06/10 01:50:31;;;;;;;12.87;9.67;;;17.50;18.30;;;;;;5037468;28;20545;-65
2023/06/10 01:52:59;;;;;;;10.50;9.40;;;17.40;18.20;;;;;;5036659;28;20458;-65
2023/06/10 01:55:27;;;;;;;11.70;9.57;;;17.40;18.20;;;;;;5039646;28;20851;-65
2023/06/10 01:57:53;;;;;;;17.57;12.07;;;17.30;18.60;;;;;;5034411;28;20521;-66
2023/06/10 02:00:20;;;;;;;13.03;10.30;;;17.30;18.70;;;;;;5035044;28;20454;-65
2023/06/10 02:02:47;;;;;;;13.60;9.50;;;17.30;18.90;;;;;;5036950;28;20466;-65
2023/06/10 02:05:13;;;;;;;13.10;9.37;;;17.20;18.80;;;;;;5039879;28;21250;-65
2023/06/10 02:07:40;;;;;;;11.40;8.63;;;17.20;19.10;;;;;;5035706;28;20490;-65
2023/06/10 02:10:08;;;;;;;14.23;9.83;;;17.20;19.40;;;;;;5036476;28;21013;-65
2023/06/10 02:12:36;;;;;;;11.70;9.27;;;17.20;19.40;;;;;;5039461;28;20950;-65
2023/06/10 02:15:03;;;;;;;11.73;8.77;;;17.20;19.40;;;;;;5036383;28;20455;-65
2023/06/10 02:17:30;;;;;;;10.33;8.43;;;17.20;19.60;;;;;;5036472;28;20482;-65
2023/06/10 02:19:58;;;;;;;13.17;9.27;;;17.20;19.80;;;;;;5035602;28;21202;-65
2023/06/10 02:22:25;;;;;;;13.17;8.87;;;17.10;19.70;;;;;;5036229;28;20907;-65
2023/06/10 02:24:52;;;;;;;14.10;9.90;;;17.10;19.60;;;;;;5038009;28;20513;-65
2023/06/10 02:27:19;;;;;;;13.73;9.93;;;17.10;20.00;;;;;;5036214;28;20491;-67
2023/06/10 02:29:47;;;;;;;11.00;8.70;;;17.10;19.70;;;;;;5036249;28;20459;-65
2023/06/10 02:32:14;;;;;;;12.13;8.50;;;17.10;20.00;;;;;;5035683;28;20570;-65
2023/06/10 02:34:42;;;;;;;9.83;8.13;;;17.10;19.90;;;;;;5036870;28;20481;-65
2023/06/10 02:37:09;;;;;;;11.13;8.07;;;17.10;20.40;;;;;;5035802;28;20502;-65
2023/06/10 02:39:36;;;;;;;9.53;7.90;;;17.10;20.40;;;;;;5038215;28;20455;-66
2023/06/10 02:42:02;;;;;;;10.60;8.57;;;17.10;20.00;;;;;;5038063;28;20462;-65
2023/06/10 02:44:29;;;;;;;11.20;8.37;;;17.00;20.30;;;;;;5036219;28;20459;-66
2023/06/10 02:46:57;;;;;;;13.00;8.90;;;17.00;20.20;;;;;;5036694;28;20486;-66
2023/06/10 02:49:24;;;;;;;12.33;8.57;;;17.00;20.70;;;;;;5036072;28;20475;-66
2023/06/10 02:51:53;;;;;;;10.17;8.43;;;17.00;20.90;;;;;;5036418;28;20476;-65
2023/06/10 02:54:20;;;;;;;10.73;8.70;;;17.00;21.10;;;;;;5038426;28;20477;-65
2023/06/10 02:56:47;;;;;;;11.50;8.50;;;16.90;21.20;;;;;;5043325;28;20565;-65
2023/06/10 02:59:14;;;;;;;14.20;10.00;;;16.90;21.10;;;;;;5048488;28;20497;-65
2023/06/10 03:01:41;;;;;;;12.67;9.03;;;16.90;21.20;;;;;;5047445;28;20478;-65
2023/06/10 03:04:09;;;;;;;15.07;10.80;;;16.90;21.40;;;;;;5044314;28;20465;-65
2023/06/10 03:06:38;;;;;;;11.73;9.73;;;16.90;21.20;;;;;;5042926;28;20474;-66
2023/06/10 03:09:07;;;;;;;10.93;8.60;;;16.90;21.00;;;;;;5042514;28;20458;-65
2023/06/10 03:11:33;;;;;;;12.20;10.30;;;16.90;21.20;;;;;;5041388;28;20515;-62
2023/06/10 03:14:00;;;;;;;13.50;10.47;;;16.80;21.60;;;;;;5042855;28;20466;-65
2023/06/10 03:16:27;;;;;;;15.60;14.00;;;16.80;22.00;;;;;;5040778;28;20915;-66
2023/06/10 03:18:54;;;;;;;16.87;14.77;;;16.80;22.10;;;;;;5045667;28;20555;-65
2023/06/10 03:21:22;;;;;;;13.53;12.20;;;16.80;22.20;;;;;;5041118;28;20461;-65
2023/06/10 03:23:49;;;;;;;12.83;11.53;;;16.80;22.40;;;;;;5045451;28;20477;-65
2023/06/10 03:26:16;;;;;;;11.87;10.60;;;16.70;22.40;;;;;;5041963;28;20541;-65
2023/06/10 03:28:43;;;;;;;12.43;9.27;;;16.70;22.40;;;;;;5044726;28;20454;-65
2023/06/10 03:31:09;;;;;;;11.87;9.63;;;16.70;22.30;;;;;;5044575;28;20486;-66
2023/06/10 03:33:37;;;;;;;10.43;9.13;;;16.70;22.20;;;;;;5044952;28;20464;-65
2023/06/10 03:36:04;;;;;;;13.47;9.10;;;16.70;22.10;;;;;;5041274;28;20543;-67
2023/06/10 03:38:32;;;;;;;11.83;9.40;;;16.70;22.30;;;;;;5045995;28;20465;-67
2023/06/10 03:40:59;;;;;;;11.23;9.20;;;16.80;22.80;;;;;;5039962;28;20455;-66
2023/06/10 03:43:26;;;;;;;12.77;9.47;;;16.70;22.30;;;;;;5044459;28;20462;-66
2023/06/10 03:45:53;;;;;;;11.03;8.40;;;16.70;22.10;;;;;;5042272;28;20458;-66
2023/06/10 03:48:20;;;;;;;12.00;9.50;;;16.70;22.80;;;;;;5041056;28;20821;-66
2023/06/10 03:50:47;;;;;;;12.27;9.90;;;16.70;22.30;;;;;;5044127;28;20879;-66
2023/06/10 03:53:14;;;;;;;15.17;9.60;;;16.70;22.70;;;;;;5044047;28;20919;-66
2023/06/10 03:55:42;;;;;;;12.93;9.70;;;16.70;23.00;;;;;;5042749;28;20454;-65
2023/06/10 03:58:09;;;;;;;11.93;9.50;;;16.70;23.40;;;;;;5044092;28;20481;-65
2023/06/10 04:00:41;;;;;;;12.83;9.70;;;16.70;23.50;;;;;;5046617;28;20981;-65
2023/06/10 04:03:08;;;;;;;12.60;9.30;;;16.80;23.20;;;;;;5046039;28;21052;-66
2023/06/10 04:05:35;;;;;;;14.30;9.93;;;16.80;22.90;;;;;;5050297;28;20466;-66
2023/06/10 04:08:02;;;;;;;12.03;10.00;;;16.90;23.30;;;;;;5047582;28;20498;-66
2023/06/10 04:10:29;;;;;;;13.27;9.27;;;16.90;23.30;;;;;;5047765;28;20946;-66
2023/06/10 04:12:57;;;;;;;13.33;8.90;;;16.90;23.30;;;;;;5044464;28;20463;-66
2023/06/10 04:15:24;;;;;;;11.03;8.57;;;17.00;23.00;;;;;;5049159;28;20465;-66
2023/06/10 04:17:50;;;;;;;10.70;8.77;;;17.10;23.00;;;;;;5044892;28;20961;-66
2023/06/10 04:20:17;;;;;;;11.50;8.80;;;17.10;23.00;;;;;;5046771;28;20453;-66
2023/06/10 04:22:44;;;;;;;12.93;8.63;;;17.20;22.80;;;;;;5049656;28;20469;-66
2023/06/10 04:25:11;;;;;;;13.40;10.10;;;17.20;22.60;;;;;;5046942;28;20466;-66
2023/06/10 04:27:38;;;;;;;10.73;8.73;;;17.30;22.70;;;;;;5045927;28;20476;-66
2023/06/10 04:30:07;;;;;;;12.63;9.00;;;17.50;22.60;;;;;;5046825;28;20465;-66
2023/06/10 04:32:34;;;;;;;12.07;8.77;;;18.40;21.20;;;;;;5042344;28;21501;-66
2023/06/10 04:35:01;;;;;;;9.37;7.70;;;19.70;18.20;;;;;;5049205;28;20466;-66
2023/06/10 04:37:29;;;;;;;9.53;7.93;;;20.90;15.30;;;;;;5042789;28;20854;-66
2023/06/10 04:39:56;;;;;;;9.50;8.00;;;22.00;12.90;;;;;;5043168;28;20500;-66
2023/06/10 04:42:22;;;;;;;10.03;8.17;;;23.00;10.70;;;;;;5047804;28;20460;-66
2023/06/10 04:44:49;;;;;;;10.90;8.00;;;23.90;8.90;;;;;;5045039;28;20461;-66
2023/06/10 04:47:17;;;;;;;10.83;8.00;;;24.60;7.40;;;;;;5042688;28;20478;-66
2023/06/10 04:49:44;;;;;;;12.00;8.77;;;25.40;5.60;;;;;;5042435;28;20473;-66
2023/06/10 04:52:11;;;;;;;9.10;7.53;;;26.00;4.30;;;;;;5044096;28;20577;-66
2023/06/10 04:54:38;;;;;;;10.03;7.73;;;26.30;3.40;;;;;;5044959;28;20457;-66
2023/06/10 04:57:07;;;;;;;9.20;7.27;;;25.70;4.10;;;;;;5045934;28;20482;-66
2023/06/10 04:59:37;;;;;;;7.87;6.53;;;26.10;4.40;;;;;;5045014;28;20461;-66
2023/06/10 05:02:04;;;;;;;9.80;7.40;;;27.10;3.20;;;;;;5042076;28;20481;-66
2023/06/10 05:04:32;;;;;;;10.10;7.83;;;28.10;1.30;;;;;;5045954;28;21178;-67
2023/06/10 05:06:59;;;;;;;7.90;6.80;;;29.00;1.00;;;;;;5045317;28;20486;-66
2023/06/10 05:09:26;;;;;;;10.07;7.43;;;29.80;1.00;;;;;;5044725;28;21289;-66
2023/06/10 05:11:54;;;;;;;8.63;7.33;;;30.50;1.00;;;;;;5045588;28;20482;-66
2023/06/10 05:14:21;;;;;;;8.73;6.93;;;31.10;1.00;;;;;;5045556;28;20492;-66
2023/06/10 05:16:48;;;;;;;8.73;7.13;;;31.80;1.00;;;;;;5042227;28;21041;-66
2023/06/10 05:19:16;;;;;;;11.13;7.57;;;32.30;1.00;;;;;;5041506;28;20473;-66
2023/06/10 05:21:45;;;;;;;9.33;8.30;;;33.00;1.00;;;;;;5048928;28;20454;-66
2023/06/10 05:24:12;;;;;;;8.03;6.93;;;33.60;1.00;;;;;;5045664;28;20466;-66
2023/06/10 05:26:40;;;;;;;9.67;7.90;;;34.30;1.00;;;;;;5040220;22;21271;-65
2023/06/10 05:29:08;;;;;;;9.60;7.70;;;34.80;1.00;;;;;;5010143;28;20475;-64
2023/06/10 05:31:35;;;;;;;10.67;7.00;;;35.10;1.00;;;;;;5009756;28;20483;-64
2023/06/10 05:34:02;;;;;;;8.13;6.60;;;35.60;1.00;;;;;;5010613;28;20550;-64
2023/06/10 05:36:29;;;;;;;7.93;6.47;;;36.10;1.00;;;;;;5007490;28;20479;-65
2023/06/10 05:38:57;;;;;;;11.00;7.67;;;36.70;1.00;;;;;;5009453;28;20456;-65
2023/06/10 05:41:25;;;;;;;9.23;8.23;;;37.30;1.00;;;;;;5009086;28;20459;-65
2023/06/10 05:43:51;;;;;;;8.20;6.83;;;37.70;1.00;;;;;;5011017;28;21024;-64
2023/06/10 05:46:18;;;;;;;7.37;6.50;;;38.30;1.00;;;;;;5013291;28;20480;-64
2023/06/10 05:48:45;;;;;;;8.77;7.23;;;38.70;1.00;;;;;;5000287;28;20464;-65
2023/06/10 05:51:12;;;;;;;8.77;7.87;;;39.20;1.00;;;;;;5009398;28;20568;-65
2023/06/10 05:53:39;;;;;;;8.10;6.80;;;39.40;1.00;;;;;;5003769;28;20987;-65
2023/06/10 05:56:07;;;;;;;10.70;6.70;;;39.80;1.00;;;;;;5003148;28;20468;-65
2023/06/10 05:58:34;;;;;;;9.93;6.67;;;40.20;1.00;;;;;;5005083;28;20472;-65
2023/06/10 06:01:01;;;;;;;8.00;7.20;;;40.60;1.00;;;;;;5008975;28;20479;-65
2023/06/10 06:03:28;;;;;;;7.60;6.80;;;40.80;1.00;;;;;;5008915;28;21220;-65
2023/06/10 06:05:55;;;;;;;7.50;6.80;;;41.20;1.00;;;;;;5006093;28;20548;-66
2023/06/10 06:08:21;;;;;;;11.63;8.10;;;41.60;1.00;;;;;;5004866;28;20465;-66
2023/06/10 06:10:48;;;;;;;9.47;6.77;;;41.90;1.00;;;;;;5005205;28;20472;-66
2023/06/10 06:13:16;;;;;;;10.53;7.00;;;42.30;1.00;;;;;;5009223;28;20495;-65
2023/06/10 06:15:43;;;;;;;8.20;6.73;;;42.60;1.00;;;;;;5007309;28;20811;-65
2023/06/10 06:18:10;;;;;;;8.97;8.00;;;43.00;1.00;;;;;;5005761;28;20499;-65
2023/06/10 06:20:36;;;;;;;8.70;7.30;;;43.40;1.00;;;;;;5003116;28;20471;-65
2023/06/10 06:23:03;;;;;;;8.17;6.80;;;44.20;1.00;;;;;;5005618;28;20468;-65
2023/06/10 06:25:30;;;;;;;7.60;6.73;;;44.70;1.00;;;;;;5005597;28;21498;-65
2023/06/10 06:27:57;;;;;;;10.73;7.10;;;45.20;1.00;;;;;;5006699;28;20491;-68
2023/06/10 06:30:25;;;;;;;7.67;6.87;;;46.00;1.00;;;;;;5004927;28;20813;-65
2023/06/10 06:32:52;;;;;;;7.60;6.87;;;46.80;1.00;;;;;;5003431;28;20493;-65
2023/06/10 06:35:19;;;;;;;7.60;6.50;;;47.40;1.00;;;;;;5001086;28;21280;-65
2023/06/10 06:37:45;;;;;;;8.43;7.17;;;48.00;1.00;;;;;;5004622;28;20995;-66
2023/06/10 06:40:13;;;;;;;9.63;6.77;;;47.80;1.00;;;;;;5006441;28;20469;-65
2023/06/10 06:42:40;;;;;;;7.00;6.30;;;48.20;1.00;;;;;;5003242;28;20456;-65
2023/06/10 06:45:07;;;;;;;8.80;6.60;;;48.90;1.00;;;;;;5003948;28;20990;-65
2023/06/10 06:47:35;;;;;;;7.90;6.70;;;49.30;1.00;;;;;;5002264;28;20494;-66
2023/06/10 06:50:02;;;;;;;7.67;6.97;;;49.70;1.00;;;;;;5006598;28;20498;-66
2023/06/10 06:52:29;;;;;;;7.20;6.50;;;50.10;1.00;;;;;;5002340;28;20507;-66
2023/06/10 06:54:56;;;;;;;12.00;6.80;;;50.40;1.00;;;;;;5002472;28;20487;-66
2023/06/10 06:57:23;;;;;;;7.20;6.50;;;50.70;1.00;;;;;;5004558;28;20567;-65
2023/06/10 06:59:49;;;;;;;10.90;7.70;;;51.00;1.00;;;;;;5005788;28;20882;-65
2023/06/10 07:02:16;;;;;;;7.93;6.70;;;51.40;1.00;;;;;;5002460;28;20475;-65
2023/06/10 07:04:45;;;;;;;9.60;6.67;;;51.90;1.00;;;;;;5006798;28;20824;-65
2023/06/10 07:07:12;;;;;;;8.37;7.50;;;51.80;1.00;;;;;;5003982;28;20570;-65
2023/06/10 07:09:39;;;;;;;7.03;5.60;;;51.40;1.00;;;;;;5003774;28;21054;-65
2023/06/10 07:12:07;;;;;;;7.00;6.17;;;50.90;1.00;;;;;;5003190;28;20479;-66
2023/06/10 07:14:34;;;;;;;7.47;6.77;;;51.30;1.00;;;;;;4999793;28;21142;-66
2023/06/10 07:17:00;;;;;;;7.20;6.50;;;51.60;1.00;;;;;;5004941;28;20491;-66
2023/06/10 07:19:27;;;;;;;7.10;6.40;;;52.00;1.00;;;;;;5006237;28;20816;-65
2023/06/10 07:21:55;;;;;;;7.20;6.50;;;52.60;1.00;;;;;;5001241;28;20463;-65
2023/06/10 07:24:22;;;;;;;7.13;6.43;;;52.90;1.00;;;;;;5004349;28;20467;-66
2023/06/10 07:26:48;;;;;;;7.93;6.23;;;53.20;1.00;;;;;;5002841;28;21035;-64
2023/06/10 07:29:15;;;;;;;7.23;6.50;;;53.60;1.00;;;;;;5004086;28;20471;-65
2023/06/10 07:31:42;;;;;;;8.30;6.30;;;54.00;1.00;;;;;;5003120;28;20478;-64
2023/06/10 07:34:09;;;;;;;7.27;6.57;;;53.70;1.00;;;;;;5005524;28;21009;-65
2023/06/10 07:36:36;;;;;;;6.37;5.70;;;52.80;1.00;;;;;;5003075;28;20491;-65
2023/06/10 07:39:05;;;;;;;7.40;6.70;;;52.00;1.00;;;;;;5003121;28;20464;-64
2023/06/10 07:41:32;;;;;;;7.00;6.30;;;52.40;1.00;;;;;;5000398;28;20455;-66
2023/06/10 07:43:59;;;;;;;7.50;6.80;;;53.20;1.00;;;;;;4999009;28;20467;-66
2023/06/10 07:46:26;;;;;;;6.40;5.70;;;53.30;1.00;;;;;;4994216;28;20494;-66
2023/06/10 07:48:54;;;;;;;5.97;5.37;;;53.50;1.00;;;;;;5002099;28;21017;-65
2023/06/10 07:51:22;;;;;;;6.23;5.63;;;54.00;1.00;;;;;;4998744;28;20463;-65
2023/06/10 07:53:48;;;;;;;6.67;6.07;;;53.70;1.00;;;;;;5001028;28;20853;-65
2023/06/10 07:56:17;;;;;;;6.10;5.50;;;54.00;1.00;;;;;;4999563;28;20491;-66
2023/06/10 07:58:43;;;;;;;7.27;5.60;;;54.30;1.00;;;;;;5002999;28;20463;-66
2023/06/10 08:01:10;;;;;;;6.53;5.60;;;54.30;1.00;;;;;;5002903;28;20833;-65
2023/06/10 08:03:37;;;;;;;6.77;6.17;;;54.20;1.00;;;;;;5003897;28;20466;-68
2023/06/10 08:06:03;;;;;;;5.53;4.93;;;54.90;1.00;;;;;;5001085;28;20958;-67
2023/06/10 08:09:11;;;;;;;6.67;5.10;;;55.10;1.00;;;;;;4997996;28;20468;-65
2023/06/10 08:11:39;;;;;;;6.33;4.73;;;55.50;1.00;;;;;;5001106;28;20463;-65
2023/06/10 08:14:06;;;;;;;5.00;4.37;;;55.90;1.00;;;;;;5005642;28;20455;-65
2023/06/10 08:16:32;;;;;;;8.97;4.10;;;55.80;1.00;;;;;;5008176;28;20483;-65
2023/06/10 08:18:59;;;;;;;6.10;4.97;;;55.70;1.00;;;;;;5007621;28;20486;-66
2023/06/10 08:21:28;;;;;;;5.00;4.37;;;55.80;1.00;;;;;;5012987;28;20887;-66
2023/06/10 08:23:55;;;;;;;5.73;4.30;;;55.80;1.00;;;;;;5007878;28;20464;-67
2023/06/10 08:26:22;;;;;;;5.93;5.17;;;55.90;1.00;;;;;;5010290;28;21026;-66
2023/06/10 08:28:50;;;;;;;5.37;4.80;;;55.20;1.00;;;;;;5007180;28;20490;-65
2023/06/10 08:31:16;;;;;;;5.90;5.10;;;53.90;1.00;;;;;;5007986;28;20471;-65
2023/06/10 08:33:43;;;;;;;7.17;5.23;;;53.20;1.00;;;;;;5007399;28;20482;-65
2023/06/10 08:36:10;;;;;;;5.83;4.57;;;53.30;1.00;;;;;;5007595;28;20468;-66
2023/06/10 08:38:37;;;;;;;6.30;4.47;;;54.30;1.00;;;;;;5007966;28;20496;-65
2023/06/10 08:41:06;;;;;;;6.00;5.40;;;55.00;1.00;;;;;;5005569;28;20466;-66
2023/06/10 08:43:37;;;;;;;5.37;4.30;;;55.30;1.00;;;;;;5001672;28;20955;-66
2023/06/10 08:46:08;;;;;;;5.40;4.70;;;55.40;1.00;;;;;;5010328;28;20470;-65
2023/06/10 08:48:36;;;;;;;5.07;4.40;;;56.10;1.00;;;;;;5008222;28;20466;-65
2023/06/10 08:51:05;;;;;;;5.27;4.40;;;56.40;1.00;;;;;;5009324;28;20463;-65
2023/06/10 08:53:34;;;;;;;5.43;3.97;;;56.50;1.00;;;;;;5013322;28;20487;-66
2023/06/10 08:56:04;;;;;;;6.03;4.20;;;56.30;1.00;;;;;;5010844;28;20466;-65
2023/06/10 08:58:35;;;;;;;4.70;4.07;;;56.40;1.00;;;;;;5012895;28;20464;-66
2023/06/10 09:01:02;;;;;;;5.20;4.40;;;56.60;1.00;;;;;;5011252;28;20704;-66
2023/06/10 09:03:31;;;;;;;5.20;4.70;;;56.50;1.00;;;;;;5010338;28;20459;-66
2023/06/10 09:05:58;;;;;;;5.53;4.30;;;56.00;1.00;;;;;;5020341;28;20207;-65
2023/06/10 09:08:25;;;;;;;6.20;4.07;;;56.10;1.00;;;;;;5012766;28;20467;-65
2023/06/10 09:10:52;;;;;;;5.43;4.53;;;56.50;1.00;;;;;;5014189;28;20458;-65
2023/06/10 09:13:19;;;;;;;4.60;4.07;;;56.00;1.00;;;;;;5011146;28;20483;-66
2023/06/10 09:15:47;;;;;;;5.00;4.13;;;55.70;1.00;;;;;;5011247;28;20463;-66
2023/06/10 09:18:14;;;;;;;4.97;3.57;;;55.20;1.00;;;;;;5009492;28;20479;-65
2023/06/10 09:20:44;;;;;;;4.50;3.67;;;53.80;1.00;;;;;;5011441;28;20471;-65
2023/06/10 09:23:11;;;;;;;6.50;4.33;;;51.00;1.00;;;;;;5014125;28;20455;-66
2023/06/10 09:25:39;;;;;;;6.40;4.73;;;48.80;1.00;;;;;;5018763;28;20463;-65
2023/06/10 09:28:13;;;;;;;5.33;4.10;;;46.50;1.00;;;;;;5009467;28;20558;-64
2023/06/10 09:30:40;;;;;;;5.53;4.10;;;44.60;1.00;;;;;;5012550;28;20464;-65
2023/06/10 09:33:12;;;;;;;5.90;4.10;;;42.40;1.00;;;;;;5017278;28;20488;-66
2023/06/10 09:35:47;;;;;;;7.07;4.50;;;40.70;1.00;;;;;;5014868;28;20838;-65
2023/06/10 09:38:16;;;;;;;5.70;4.17;;;39.60;1.00;;;;;;5017716;28;20932;-65
2023/06/10 09:40:50;;;;;;;6.10;4.37;;;38.60;1.00;;;;;;5009765;28;20587;-65
2023/06/10 09:43:17;;;;;;;6.33;4.40;;;37.70;1.00;;;;;;5013574;28;20991;-66
2023/06/10 09:45:44;;;;;;;6.80;4.30;;;36.90;1.00;;;;;;5022159;28;20466;-66
2023/06/10 09:48:11;;;;;;;7.33;4.50;;;36.20;1.00;;;;;;5015056;28;20495;-66
2023/06/10 09:50:43;;;;;;;5.50;4.23;;;35.60;1.00;;;;;;5011064;28;20456;-63
2023/06/10 09:53:11;;;;;;;5.50;4.40;;;34.80;1.00;;;;;;5011059;28;20502;-64
2023/06/10 09:55:39;;;;;;;6.13;4.50;;;34.30;1.00;;;;;;5010570;28;20665;-63
2023/06/10 09:58:06;;;;;;;6.63;4.70;;;33.70;1.00;;;;;;5014180;28;20484;-65
2023/06/10 10:00:33;;;;;;;9.57;5.13;;;33.40;1.00;;;;;;5016245;28;20471;-64
2023/06/10 10:03:01;;;;;;;7.07;4.67;;;33.30;1.00;;;;;;5013797;28;20487;-64
2023/06/10 10:05:29;;;;;;;6.47;4.80;;;33.30;1.00;;;;;;5012822;28;20463;-63
2023/06/10 10:07:57;;;;;;;8.10;4.80;;;33.10;1.00;;;;;;5013692;28;20479;-64
2023/06/10 10:10:25;;;;;;;6.53;5.10;;;32.80;1.00;;;;;;5013445;28;20462;-64
2023/06/10 10:12:56;;;;;;;6.40;4.97;;;32.30;1.00;;;;;;5012498;28;20560;-64
2023/06/10 10:15:26;;;;;;;6.87;5.33;;;31.90;1.00;;;;;;5013082;28;20533;-64
2023/06/10 10:17:58;;;;;;;6.50;4.90;;;31.60;1.00;;;;;;5014779;28;20503;-64
2023/06/10 10:20:30;;;;;;;6.30;4.73;;;31.50;1.00;;;;;;5016880;28;20466;-65
2023/06/10 10:22:58;;;;;;;7.60;5.57;;;31.10;1.00;;;;;;5016283;28;20475;-65
2023/06/10 10:25:30;;;;;;;6.83;5.20;;;30.90;1.00;;;;;;5013009;28;20469;-64
2023/06/10 10:28:00;;;;;;;7.27;5.37;;;30.90;1.00;;;;;;5006074;28;20574;-64
2023/06/10 10:30:27;;;;;;;7.00;5.00;;;30.70;1.00;;;;;;5011405;28;20556;-64
2023/06/10 10:32:59;;;;;;;6.40;4.63;;;30.50;1.00;;;;;;5009273;28;20490;-65
2023/06/10 10:35:26;;;;;;;7.53;5.40;;;30.20;1.00;;;;;;5014310;28;20515;-64
2023/06/10 10:37:54;;;;;;;7.70;5.60;;;30.20;1.00;;;;;;5002435;28;20487;-64
2023/06/10 10:40:22;;;;;;;9.60;5.10;;;30.30;1.00;;;;;;5009150;28;20476;-64
2023/06/10 10:42:50;;;;;;;7.70;5.97;;;30.50;1.00;;;;;;5008355;28;20465;-64
2023/06/10 10:45:18;;;;;;;8.20;5.53;;;30.40;1.00;;;;;;5006997;28;20828;-64
2023/06/10 10:47:46;;;;;;;7.53;5.30;;;30.40;1.00;;;;;;5012718;28;20478;-65
2023/06/10 10:50:17;;;;;;;6.37;4.80;;;30.40;1.00;;;;;;5010312;28;20478;-64
2023/06/10 10:52:53;;;;;;;9.13;5.40;;;30.30;1.00;;;;;;5006425;28;20488;-65
2023/06/10 10:55:20;;;;;;;8.03;4.80;;;30.40;1.00;;;;;;5005650;28;20494;-64
2023/06/10 10:57:56;;;;;;;6.93;4.60;;;30.40;1.00;;;;;;5006508;28;21015;-64
2023/06/10 11:00:29;;;;;;;8.37;5.63;;;30.20;1.00;;;;;;5004620;28;20518;-64
2023/06/10 11:03:00;;;;;;;6.53;5.10;;;30.10;1.00;;;;;;5008415;28;20463;-64
2023/06/10 11:05:38;;;;;;;8.60;5.57;;;30.10;1.00;;;;;;5014583;28;20517;-64
2023/06/10 11:08:05;;;;;;;6.70;5.23;;;29.90;1.00;;;;;;5013289;28;20836;-64
2023/06/10 11:10:33;;;;;;;7.43;4.73;;;29.80;1.00;;;;;;5010533;28;20470;-65
2023/06/10 11:13:06;;;;;;;7.13;5.10;;;29.70;1.00;;;;;;5013791;28;20486;-65
2023/06/10 11:15:33;;;;;;;6.53;4.70;;;29.60;1.00;;;;;;5010144;28;20460;-65
2023/06/10 11:18:21;;;;;;;7.50;5.40;;;29.50;1.00;;;;;;5009890;28;20498;-65
2023/06/10 11:20:56;;;;;;;6.67;5.30;;;29.20;1.00;;;;;;5012156;28;20463;-65
2023/06/10 11:23:42;;;;;;;6.50;4.80;;;28.90;1.00;;;;;;5009172;28;20855;-65
2023/06/10 11:26:20;;;;;;;7.07;5.10;;;28.70;1.00;;;;;;5014434;28;20467;-65
2023/06/10 11:29:09;;;;;;;6.50;4.90;;;28.70;1.00;;;;;;5005617;28;20463;-65
2023/06/10 11:31:43;;;;;;;7.30;5.57;;;28.70;1.00;;;;;;5049885;22;20518;-63
2023/06/10 11:34:10;;;;;;;6.53;4.77;;;28.70;1.00;;;;;;5036800;28;21028;-63
2023/06/10 11:36:42;;;;;;;6.63;4.67;;;28.60;1.00;;;;;;5029096;28;20915;-65
2023/06/10 11:39:10;;;;;;;7.27;5.10;;;28.60;1.00;;;;;;5028119;28;20463;-65
2023/06/10 11:41:39;;;;;;;7.87;5.70;;;28.60;1.00;;;;;;5015498;28;23101;-65
2023/06/10 11:44:09;;;;;;;8.10;5.60;;;28.60;1.00;;;;;;5021313;28;20466;-65
2023/06/10 11:46:36;;;;;;;6.90;4.30;;;28.60;1.00;;;;;;5024346;28;20478;-65
2023/06/10 11:49:05;;;;;;;8.10;5.00;;;28.50;1.00;;;;;;5021345;28;20907;-65
2023/06/10 11:51:34;;;;;;;6.97;5.27;;;28.30;1.00;;;;;;5022671;28;20472;-65
2023/06/10 11:54:01;;;;;;;6.63;4.87;;;28.10;1.00;;;;;;5024608;28;20887;-65
2023/06/10 11:56:30;;;;;;;7.13;5.10;;;27.90;1.00;;;;;;5021398;28;20521;-65
2023/06/10 11:59:00;;;;;;;7.17;4.87;;;27.70;1.00;;;;;;5024903;28;20459;-65
2023/06/10 12:01:28;;;;;;;7.47;5.07;;;27.60;1.00;;;;;;5027865;28;20552;-65
2023/06/10 12:04:00;;;;;;;8.40;5.40;;;27.50;1.00;;;;;;5025838;28;20455;-65
2023/06/10 12:06:27;;;;;;;6.40;5.10;;;27.50;1.00;;;;;;5021605;28;20483;-65
2023/06/10 12:08:55;;;;;;;9.63;5.50;;;27.60;1.00;;;;;;5026700;28;20466;-65
2023/06/10 12:11:23;;;;;;;7.20;5.83;;;27.70;1.00;;;;;;5022071;28;20550;-65
2023/06/10 12:13:50;;;;;;;8.63;6.47;;;27.70;1.00;;;;;;5020167;28;20475;-65
2023/06/10 12:16:19;;;;;;;6.90;5.80;;;27.80;1.00;;;;;;5020346;28;20483;-65
2023/06/10 12:18:48;;;;;;;6.90;5.67;;;27.80;1.00;;;;;;5020281;28;20466;-65
2023/06/10 12:21:20;;;;;;;6.40;5.20;;;27.80;1.00;;;;;;5022800;28;20459;-65
2023/06/10 12:24:05;;;;;;;6.63;5.23;;;27.90;1.00;;;;;;5026661;28;20486;-65
2023/06/10 12:26:39;;;;;;;8.87;5.97;;;28.10;1.00;;;;;;5020090;28;20574;-65
2023/06/10 12:29:20;;;;;;;8.13;5.03;;;28.20;1.00;;;;;;5022710;28;20490;-65
2023/06/10 12:31:58;;;;;;;7.57;5.67;;;28.30;1.00;;;;;;5027774;28;20903;-65
2023/06/10 12:34:38;;;;;;;7.80;5.97;;;28.20;1.00;;;;;;5027240;28;20505;-65
2023/06/10 12:37:06;;;;;;;7.50;6.03;;;28.20;1.00;;;;;;5024140;28;20873;-66
2023/06/10 12:39:34;;;;;;;6.07;5.03;;;28.20;1.00;;;;;;5026997;28;20463;-65
2023/06/10 12:42:02;;;;;;;8.23;5.67;;;28.10;1.00;;;;;;5026677;28;20467;-65
2023/06/10 12:44:36;;;;;;;7.00;5.40;;;27.90;1.00;;;;;;5026379;28;20459;-65
2023/06/10 12:47:09;;;;;;;7.70;6.23;;;27.80;1.00;;;;;;5027510;28;20486;-65
2023/06/10 12:49:38;;;;;;;6.90;5.60;;;27.90;1.00;;;;;;5027325;28;20458;-65
2023/06/10 12:52:05;;;;;;;7.13;5.93;;;27.90;1.00;;;;;;5025909;28;20489;-65
2023/06/10 12:54:32;;;;;;;6.30;5.17;;;27.90;1.00;;;;;;5024371;28;20487;-65